createdAt,value
2022-12-27T00:00:08.454Z,2.83
2022-12-27T00:02:38.489Z,2.50
2022-12-27T00:05:09.013Z,2.15
2022-12-27T00:07:37.141Z,2.20
2022-12-27T00:10:06.481Z,2.53
2022-12-27T00:12:33.816Z,2.60
2022-12-27T00:15:01.033Z,2.72
2022-12-27T00:17:28.505Z,2.70
2022-12-27T00:19:55.580Z,2.75
2022-12-27T00:22:22.785Z,2.72
2022-12-27T00:24:49.755Z,2.88
2022-12-27T00:27:16.719Z,3.08
2022-12-27T00:29:44.824Z,2.60
2022-12-27T00:32:11.932Z,3.15
2022-12-27T00:34:39.009Z,3.28
2022-12-27T00:37:05.885Z,3.58
2022-12-27T00:39:32.784Z,3.22
2022-12-27T00:41:59.660Z,2.95
2022-12-27T00:44:26.518Z,2.47
2022-12-27T00:46:53.454Z,2.70
2022-12-27T00:49:20.310Z,2.90
2022-12-27T00:51:47.203Z,2.50
2022-12-27T00:54:14.086Z,3.50
2022-12-27T00:56:40.932Z,3.22
2022-12-27T00:59:08.314Z,2.80
2022-12-27T01:01:36.900Z,3.60
2022-12-27T01:04:05.082Z,3.50
2022-12-27T01:06:34.752Z,2.70
2022-12-27T01:09:03.852Z,2.70
2022-12-27T01:11:31.037Z,3.40
2022-12-27T01:14:01.794Z,2.72
2022-12-27T01:16:31.448Z,3.42
2022-12-27T01:19:01.681Z,2.92
2022-12-27T01:21:30.973Z,2.70
2022-12-27T01:23:58.594Z,3.00
2022-12-27T01:26:26.169Z,3.50
2022-12-27T01:28:54.644Z,2.80
2022-12-27T01:31:27.636Z,3.63
2022-12-27T01:33:57.733Z,2.85
2022-12-27T01:36:27.088Z,3.25
2022-12-27T01:38:54.255Z,2.60
2022-12-27T01:41:46.062Z,3.05
2022-12-27T01:44:39.381Z,3.42
2022-12-27T01:49:53.275Z,2.78
2022-12-27T01:52:22.691Z,3.03
2022-12-27T01:54:49.735Z,3.42
2022-12-27T01:57:16.877Z,2.95
2022-12-27T01:59:43.982Z,2.80
2022-12-27T02:02:11.055Z,3.17
2022-12-27T02:04:38.684Z,2.70
2022-12-27T02:07:06.052Z,3.42
2022-12-27T02:09:59.192Z,2.88
2022-12-27T02:12:27.118Z,2.95
2022-12-27T02:14:54.035Z,3.28
2022-12-27T02:17:29.275Z,2.70
2022-12-27T02:20:03.641Z,3.30
2022-12-27T02:23:39.621Z,2.80
2022-12-27T02:26:44.803Z,3.22
2022-12-27T02:29:45.157Z,2.92
2022-12-27T02:32:57.324Z,2.75
2022-12-27T02:35:36.568Z,2.85
2022-12-27T02:38:18.511Z,3.03
2022-12-27T02:41:06.318Z,2.70
2022-12-27T02:43:51.745Z,2.78
2022-12-27T02:46:48.247Z,2.90
2022-12-27T02:49:47.749Z,2.63
2022-12-27T02:53:11.283Z,2.45
2022-12-27T02:56:33.876Z,3.03
2022-12-27T02:59:28.131Z,2.72
2022-12-27T03:03:02.026Z,2.47
2022-12-27T03:06:11.518Z,2.88
2022-12-27T03:09:50.617Z,3.28
2022-12-27T03:12:45.604Z,2.72
2022-12-27T03:15:56.241Z,3.20
2022-12-27T03:18:41.094Z,2.80
2022-12-27T03:21:27.898Z,2.92
2022-12-27T03:24:16.940Z,3.25
2022-12-27T03:26:51.169Z,3.15
2022-12-27T03:43:21.636Z,3.35
2022-12-27T03:46:31.634Z,3.33
2022-12-27T03:49:36.269Z,3.22
2022-12-27T03:52:20.113Z,3.22
2022-12-27T03:54:51.053Z,2.90
2022-12-27T03:57:27.834Z,2.85
2022-12-27T03:59:55.398Z,3.50
2022-12-27T04:02:22.449Z,3.38
2022-12-27T04:04:50.220Z,3.00
2022-12-27T04:07:17.163Z,2.83
2022-12-27T04:10:02.371Z,2.72
2022-12-27T04:12:47.756Z,3.22
2022-12-27T04:15:33.108Z,2.83
2022-12-27T04:18:18.665Z,2.80
2022-12-27T04:21:04.022Z,2.95
2022-12-27T04:23:49.445Z,3.28
2022-12-27T04:26:34.738Z,3.25
2022-12-27T04:29:20.197Z,3.30
2022-12-27T04:32:05.744Z,3.60
2022-12-27T04:34:42.554Z,3.58
2022-12-27T04:37:17.022Z,3.53
2022-12-27T04:40:08.995Z,3.35
2022-12-27T04:42:54.518Z,3.65
2022-12-27T04:45:40.979Z,3.10
2022-12-27T04:48:32.017Z,3.10
2022-12-27T04:51:18.707Z,3.20
2022-12-27T04:54:04.176Z,3.63
2022-12-27T04:56:31.157Z,3.38
2022-12-27T04:59:16.720Z,3.40
2022-12-27T05:02:02.413Z,3.03
2022-12-27T05:04:35.394Z,3.20
2022-12-27T05:10:08.761Z,2.80
2022-12-27T05:12:54.198Z,2.80
2022-12-27T05:15:21.123Z,3.17
2022-12-27T05:17:48.078Z,3.20
2022-12-27T05:20:14.956Z,3.03
2022-12-27T05:23:00.407Z,3.28
2022-12-27T05:25:39.899Z,3.17
2022-12-27T05:28:10.487Z,3.40
2022-12-27T05:30:40.966Z,3.40
2022-12-27T05:33:11.282Z,3.65
2022-12-27T05:35:38.285Z,3.20
2022-12-27T05:38:05.740Z,3.28
2022-12-27T05:40:34.849Z,3.20
2022-12-27T05:43:04.114Z,3.40
2022-12-27T05:45:32.458Z,3.78
2022-12-27T05:48:00.083Z,3.60
2022-12-27T05:50:27.549Z,3.88
2022-12-27T05:52:56.055Z,3.67
2022-12-27T05:55:23.189Z,4.07
2022-12-27T05:57:49.990Z,3.33
2022-12-27T06:00:17.218Z,3.50
2022-12-27T06:02:44.237Z,2.88
2022-12-27T06:05:11.469Z,3.28
2022-12-27T06:07:39.403Z,3.50
2022-12-27T06:10:09.152Z,3.47
2022-12-27T06:12:36.281Z,3.42
2022-12-27T06:15:05.334Z,3.00
2022-12-27T06:17:33.272Z,3.10
2022-12-27T06:20:00.125Z,3.45
2022-12-27T06:22:26.975Z,2.95
2022-12-27T06:24:53.838Z,2.97
2022-12-27T06:27:20.683Z,3.08
2022-12-27T06:29:47.485Z,2.80
2022-12-27T06:32:17.687Z,2.50
2022-12-27T06:34:45.466Z,2.50
2022-12-27T06:37:12.421Z,3.10
2022-12-27T06:39:39.289Z,2.90
2022-12-27T06:42:06.161Z,3.15
2022-12-27T06:44:33.104Z,3.03
2022-12-27T06:46:59.945Z,3.38
2022-12-27T06:49:26.910Z,3.25
2022-12-27T06:51:59.358Z,3.53
2022-12-27T06:56:53.866Z,3.40
2022-12-27T06:59:20.672Z,3.88
2022-12-27T07:01:47.777Z,3.00
2022-12-27T07:04:14.812Z,3.60
2022-12-27T07:06:41.663Z,3.80
2022-12-27T07:09:08.927Z,3.70
2022-12-27T07:11:37.555Z,3.88
2022-12-27T07:14:09.696Z,4.40
2022-12-27T07:16:37.520Z,3.83
2022-12-27T07:19:04.722Z,4.40
2022-12-27T07:21:31.654Z,4.18
2022-12-27T07:23:58.565Z,4.70
2022-12-27T07:26:30.114Z,4.70
2022-12-27T07:29:00.760Z,5.35
2022-12-27T07:31:31.256Z,6.05
2022-12-27T07:34:01.397Z,6.07
2022-12-27T07:36:48.551Z,6.00
2022-12-27T07:39:15.408Z,6.40
2022-12-27T07:41:42.329Z,6.30
2022-12-27T07:44:11.661Z,6.28
2022-12-27T07:46:38.563Z,6.78
2022-12-27T07:49:05.448Z,7.10
2022-12-27T07:51:32.907Z,8.00
2022-12-27T07:53:59.954Z,7.65
2022-12-27T07:56:28.812Z,8.00
2022-12-27T07:59:01.426Z,8.23
2022-12-27T08:14:09.421Z,9.20
2022-12-27T08:16:36.308Z,8.90
2022-12-27T08:19:08.204Z,8.35
2022-12-27T08:21:35.433Z,8.35
2022-12-27T08:24:02.291Z,9.05
2022-12-27T08:26:29.198Z,8.40
2022-12-27T08:28:56.084Z,9.10
2022-12-27T08:31:23.134Z,8.35
2022-12-27T08:33:56.530Z,8.30
2022-12-27T08:39:12.170Z,8.27
2022-12-27T08:41:39.291Z,8.50
2022-12-27T08:44:06.461Z,8.57
2022-12-27T08:46:33.559Z,8.75
2022-12-27T08:49:00.907Z,8.65
2022-12-27T08:51:35.780Z,9.25
2022-12-27T08:54:05.907Z,9.55
2022-12-27T08:56:33.057Z,9.07
2022-12-27T08:59:00.126Z,9.68
2022-12-27T09:01:27.408Z,9.73
2022-12-27T09:03:54.622Z,9.70
2022-12-27T09:06:24.411Z,9.20
2022-12-27T09:08:52.207Z,9.77
2022-12-27T09:11:22.999Z,9.77
2022-12-27T09:13:50.639Z,9.80
2022-12-27T09:16:23.124Z,9.65
2022-12-27T09:18:53.372Z,9.70
2022-12-27T09:21:23.734Z,9.48
2022-12-27T09:23:51.599Z,9.27
2022-12-27T09:26:21.164Z,8.63
2022-12-27T09:28:49.890Z,8.18
2022-12-27T09:31:19.449Z,8.30
2022-12-27T09:33:46.426Z,8.00
2022-12-27T09:36:17.443Z,8.30
2022-12-27T09:38:45.792Z,7.55
2022-12-27T09:42:45.048Z,6.82
2022-12-27T09:44:51.629Z,6.15
2022-12-27T09:47:29.839Z,6.95
2022-12-27T09:50:24.691Z,6.72
2022-12-27T09:52:57.321Z,6.75
2022-12-27T09:55:43.605Z,6.10
2022-12-27T09:58:28.979Z,6.28
2022-12-27T10:00:55.890Z,6.05
2022-12-27T10:03:27.717Z,6.50
2022-12-27T10:06:40.317Z,5.38
2022-12-27T10:09:34.195Z,5.80
2022-12-27T10:12:51.355Z,5.40
2022-12-27T10:16:03.759Z,5.57
2022-12-27T10:18:49.875Z,5.22
2022-12-27T10:21:34.384Z,5.07
2022-12-27T10:24:17.459Z,5.07
2022-12-27T10:26:44.788Z,4.18
2022-12-27T10:29:27.047Z,4.68
2022-12-27T10:31:54.202Z,5.18
2022-12-27T10:34:24.742Z,5.15
2022-12-27T10:36:56.078Z,4.65
2022-12-27T10:39:33.251Z,5.38
2022-12-27T10:42:11.823Z,5.72
2022-12-27T10:44:40.258Z,5.65
2022-12-27T10:47:10.786Z,4.40
2022-12-27T10:49:42.577Z,4.60
2022-12-27T10:52:23.360Z,5.15
2022-12-27T10:54:58.091Z,4.75
2022-12-27T10:57:35.014Z,4.60
2022-12-27T11:00:18.103Z,5.03
2022-12-27T11:05:33.520Z,4.65
2022-12-27T11:08:18.515Z,4.80
2022-12-27T11:10:45.343Z,5.05
2022-12-27T11:13:19.205Z,4.07
2022-12-27T11:15:58.944Z,4.80
2022-12-27T11:18:26.609Z,4.82
2022-12-27T11:20:57.180Z,5.03
2022-12-27T11:23:32.189Z,5.25
2022-12-27T11:26:06.305Z,5.25
2022-12-27T11:28:44.199Z,5.40
2022-12-27T11:31:19.044Z,12.50
2022-12-27T11:33:52.993Z,6.30
2022-12-27T11:36:36.583Z,5.75
2022-12-27T11:39:04.900Z,5.43
2022-12-27T11:41:38.207Z,5.78
2022-12-27T11:44:29.595Z,6.38
2022-12-27T11:47:33.049Z,5.68
2022-12-27T11:50:26.723Z,6.07
2022-12-27T11:53:12.118Z,5.30
2022-12-27T11:56:09.532Z,5.35
2022-12-27T11:58:51.112Z,5.57
2022-12-27T12:01:51.967Z,6.15
2022-12-27T12:04:56.135Z,6.22
2022-12-27T12:08:01.152Z,6.53
2022-12-27T12:10:46.158Z,7.13
2022-12-27T12:13:37.871Z,6.57
2022-12-27T12:16:40.625Z,6.90
2022-12-27T12:19:59.292Z,7.30
2022-12-27T12:22:49.684Z,6.85
2022-12-27T12:25:54.985Z,6.18
2022-12-27T12:29:04.156Z,5.85
2022-12-27T12:31:51.961Z,5.90
2022-12-27T12:34:45.976Z,5.63
2022-12-27T12:37:27.771Z,5.90
2022-12-27T12:40:25.767Z,5.70
2022-12-27T12:43:11.093Z,9.27
2022-12-27T12:46:12.272Z,5.70
2022-12-27T12:48:57.745Z,7.10
2022-12-27T12:51:49.878Z,6.63
2022-12-27T12:54:58.332Z,7.40
2022-12-27T12:58:16.338Z,8.48
2022-12-27T13:01:08.840Z,5.95
2022-12-27T13:03:39.076Z,3.90
2022-12-27T13:06:36.320Z,5.20
2022-12-27T13:09:31.571Z,5.90
2022-12-27T13:12:20.999Z,5.53
2022-12-27T13:15:05.805Z,5.30
2022-12-27T13:17:53.918Z,5.45
2022-12-27T13:20:42.893Z,5.60
2022-12-27T13:36:15.492Z,5.55
2022-12-27T13:38:52.418Z,7.15
2022-12-27T13:41:56.504Z,6.88
2022-12-27T13:45:03.853Z,6.25
2022-12-27T13:48:18.978Z,6.68
2022-12-27T13:51:04.773Z,6.13
2022-12-27T13:54:07.057Z,6.22
2022-12-27T13:56:54.866Z,7.45
2022-12-27T13:59:30.894Z,6.43
2022-12-27T14:02:10.442Z,7.60
2022-12-27T14:05:28.191Z,8.20
2022-12-27T14:07:59.599Z,7.85
2022-12-27T14:11:00.703Z,6.90
2022-12-27T14:13:36.602Z,6.40
2022-12-27T14:16:33.137Z,6.65
2022-12-27T14:19:47.671Z,6.57
2022-12-27T14:22:24.802Z,7.90
2022-12-27T14:25:19.352Z,7.18
2022-12-27T14:28:24.216Z,7.70
2022-12-27T14:31:18.056Z,7.60
2022-12-27T14:34:37.591Z,6.57
2022-12-27T14:37:28.480Z,6.95
2022-12-27T14:40:35.117Z,6.22
2022-12-27T14:43:41.994Z,6.38
2022-12-27T14:46:30.354Z,6.47
2022-12-27T14:49:00.225Z,6.07
2022-12-27T14:52:02.374Z,5.40
2022-12-27T14:55:05.362Z,5.68
2022-12-27T14:58:28.281Z,4.50
2022-12-27T15:01:27.710Z,4.75
2022-12-27T15:04:24.941Z,8.73
2022-12-27T15:07:12.974Z,4.93
2022-12-27T15:09:57.766Z,4.65
2022-12-27T15:12:38.412Z,4.28
2022-12-27T15:15:47.090Z,4.18
2022-12-27T15:18:58.334Z,4.15
2022-12-27T15:22:39.615Z,4.72
2022-12-27T15:25:56.072Z,4.50
2022-12-27T15:28:34.283Z,4.55
2022-12-27T15:31:34.472Z,4.90
2022-12-27T15:34:48.322Z,5.20
2022-12-27T15:40:36.115Z,3.92
2022-12-27T15:43:51.147Z,4.38
2022-12-27T15:47:08.592Z,4.95
2022-12-27T15:49:54.636Z,6.18
2022-12-27T15:53:00.080Z,6.63
2022-12-27T15:56:00.426Z,4.85
2022-12-27T15:58:29.218Z,4.72
2022-12-27T16:01:25.463Z,5.38
2022-12-27T16:03:55.150Z,4.80
2022-12-27T16:06:34.297Z,4.18
2022-12-27T16:09:26.228Z,4.18
2022-12-27T16:12:31.228Z,3.50
2022-12-27T16:15:51.015Z,4.20
2022-12-27T16:18:24.030Z,5.00
2022-12-27T16:23:47.428Z,5.15
2022-12-27T16:26:35.833Z,7.32
2022-12-27T16:29:16.646Z,10.82
2022-12-27T16:31:51.010Z,13.82
2022-12-27T16:34:31.321Z,13.43
2022-12-27T16:37:03.543Z,26.10
2022-12-27T16:39:59.519Z,5.13
2022-12-27T16:42:55.130Z,5.40
2022-12-27T16:45:59.266Z,6.28
2022-12-27T16:49:05.223Z,8.65
2022-12-27T16:52:00.704Z,9.18
2022-12-27T16:55:22.561Z,5.30
2022-12-27T16:57:51.900Z,5.22
2022-12-27T17:00:37.056Z,9.23
2022-12-27T17:03:22.669Z,5.85
2022-12-27T17:06:30.043Z,6.20
2022-12-27T17:08:39.469Z,5.13
2022-12-27T17:11:26.936Z,5.35
2022-12-27T17:14:25.870Z,6.68
2022-12-27T17:17:15.893Z,5.43
2022-12-27T17:19:56.833Z,5.35
2022-12-27T17:22:32.317Z,5.80
2022-12-27T17:25:03.934Z,5.57
2022-12-27T17:28:01.238Z,5.80
2022-12-27T17:30:58.198Z,5.20
2022-12-27T17:33:48.611Z,5.20
2022-12-27T17:37:12.060Z,16.33
2022-12-27T17:40:34.151Z,18.90
2022-12-27T17:44:02.280Z,10.93
2022-12-27T17:46:49.602Z,6.53
2022-12-27T17:49:25.274Z,5.88
2022-12-27T17:52:11.530Z,5.72
2022-12-27T17:54:57.428Z,5.93
2022-12-27T17:57:42.935Z,5.40
2022-12-27T18:00:25.060Z,5.80
2022-12-27T18:02:56.806Z,6.40
2022-12-27T18:05:31.136Z,5.53
2022-12-27T18:08:29.044Z,5.72
2022-12-27T18:11:00.856Z,5.88
2022-12-27T18:13:35.577Z,5.55
2022-12-27T18:16:19.856Z,6.38
2022-12-27T18:18:51.843Z,6.03
2022-12-27T18:21:32.187Z,4.65
2022-12-27T18:24:00.040Z,4.75
2022-12-27T18:26:42.024Z,4.40
2022-12-27T18:29:22.872Z,4.78
2022-12-27T18:31:55.713Z,4.40
2022-12-27T18:46:01.569Z,4.63
2022-12-27T18:48:47.127Z,4.68
2022-12-27T18:51:18.543Z,5.72
2022-12-27T18:53:46.109Z,5.45
2022-12-27T18:56:16.062Z,5.72
2022-12-27T18:59:05.831Z,7.07
2022-12-27T19:01:45.613Z,6.05
2022-12-27T19:04:16.574Z,4.80
2022-12-27T19:07:11.822Z,3.83
2022-12-27T19:09:50.674Z,5.25
2022-12-27T19:12:34.083Z,4.47
2022-12-27T19:15:04.510Z,3.30
2022-12-27T19:17:32.897Z,3.20
2022-12-27T19:20:07.945Z,3.15
2022-12-27T19:22:37.001Z,2.88
2022-12-27T19:25:30.150Z,2.90
2022-12-27T19:28:10.776Z,7.05
2022-12-27T19:31:03.157Z,3.03
2022-12-27T19:33:34.650Z,7.28
2022-12-27T19:36:06.850Z,17.33
2022-12-27T19:38:34.580Z,11.75
2022-12-27T19:41:04.437Z,8.63
2022-12-27T19:43:40.113Z,11.50
2022-12-27T19:46:07.249Z,7.53
2022-12-27T19:48:34.286Z,7.35
2022-12-27T19:51:01.365Z,6.55
2022-12-27T19:53:39.642Z,5.47
2022-12-27T19:56:10.820Z,44.90
2022-12-27T19:58:38.054Z,14.65
2022-12-27T20:01:05.261Z,18.42
2022-12-27T20:03:32.487Z,19.48
2022-12-27T20:06:14.688Z,15.35
2022-12-27T20:08:50.499Z,30.88
2022-12-27T20:11:23.997Z,31.35
2022-12-27T20:13:51.126Z,20.65
2022-12-27T20:16:20.097Z,8.20
2022-12-27T20:18:47.828Z,14.35
2022-12-27T20:21:20.289Z,12.45
2022-12-27T20:23:48.439Z,10.77
2022-12-27T20:26:23.542Z,18.45
2022-12-27T20:28:51.949Z,15.07
2022-12-27T20:31:21.767Z,15.82
2022-12-27T20:33:53.703Z,9.40
2022-12-27T20:36:22.190Z,8.93
2022-12-27T20:38:49.226Z,15.85
2022-12-27T20:41:20.275Z,11.57
2022-12-27T20:43:47.590Z,6.90
2022-12-27T20:46:17.863Z,7.68
2022-12-27T20:48:46.887Z,8.68
2022-12-27T20:51:18.095Z,6.45
2022-12-27T20:53:46.876Z,6.68
2022-12-27T20:56:14.081Z,5.00
2022-12-27T20:58:41.208Z,5.00
2022-12-27T21:01:15.705Z,6.57
2022-12-27T21:03:43.859Z,6.15
2022-12-27T21:06:14.793Z,5.60
2022-12-27T21:08:47.884Z,5.78
2022-12-27T21:11:31.268Z,6.55
2022-12-27T21:13:59.912Z,6.60
2022-12-27T21:16:29.611Z,5.43
2022-12-27T21:18:57.555Z,5.78
2022-12-27T21:21:28.239Z,6.93
2022-12-27T21:23:57.665Z,5.97
2022-12-27T21:26:29.384Z,5.43
2022-12-27T21:28:57.961Z,5.28
2022-12-27T21:31:25.584Z,5.43
2022-12-27T21:33:52.575Z,5.68
2022-12-27T21:36:26.301Z,6.57
2022-12-27T21:38:54.787Z,6.07
2022-12-27T21:41:24.942Z,6.05
2022-12-27T21:43:53.015Z,4.50
2022-12-27T21:46:19.852Z,5.50
2022-12-27T21:48:47.859Z,5.07
2022-12-27T21:51:18.501Z,5.40
2022-12-27T21:53:46.067Z,5.32
2022-12-27T21:56:15.644Z,4.78
2022-12-27T21:58:44.374Z,5.65
2022-12-27T22:01:14.432Z,6.07
2022-12-27T22:03:44.508Z,5.95
2022-12-27T22:06:21.258Z,6.65
2022-12-27T22:08:52.086Z,6.53
2022-12-27T22:11:21.986Z,6.53
2022-12-27T22:13:49.695Z,6.90
2022-12-27T22:16:24.150Z,6.25
2022-12-27T22:18:51.994Z,6.15
2022-12-27T22:21:29.305Z,6.82
2022-12-27T22:23:59.246Z,6.15
2022-12-27T22:26:33.441Z,6.55
2022-12-27T22:29:00.362Z,6.28
2022-12-27T22:31:35.115Z,6.35
2022-12-27T22:36:30.638Z,6.13
2022-12-27T22:38:59.472Z,5.65
2022-12-27T22:41:35.040Z,5.82
2022-12-27T22:44:13.563Z,5.47
2022-12-27T22:47:15.662Z,5.70
2022-12-27T22:49:29.387Z,5.68
2022-12-27T22:51:56.218Z,5.20
2022-12-27T22:55:03.348Z,4.88
2022-12-27T22:57:09.877Z,5.03
2022-12-27T22:59:36.707Z,4.90
2022-12-27T23:02:03.675Z,5.05
2022-12-27T23:04:30.814Z,5.10
2022-12-27T23:07:01.571Z,5.03
2022-12-27T23:09:29.302Z,4.75
2022-12-27T23:11:56.495Z,5.13
2022-12-27T23:14:23.586Z,5.03
2022-12-27T23:16:51.030Z,5.18
2022-12-27T23:19:22.117Z,4.95
2022-12-27T23:21:49.082Z,5.28
2022-12-27T23:24:16.389Z,5.25
2022-12-27T23:26:43.298Z,4.90
2022-12-27T23:29:14.896Z,5.90
2022-12-27T23:31:54.894Z,5.93
2022-12-27T23:34:27.625Z,5.22
2022-12-27T23:36:59.484Z,4.88
2022-12-27T23:39:26.670Z,5.00
2022-12-27T23:41:53.824Z,4.57
2022-12-27T23:44:33.211Z,4.45
2022-12-27T23:47:05.653Z,4.93
2022-12-27T23:49:33.178Z,4.63
2022-12-27T23:52:00.079Z,5.25
2022-12-27T23:54:26.949Z,5.30
2022-12-27T23:56:53.836Z,7.00
2022-12-27T23:59:20.951Z,5.47
